ADDS METAR Data INFO
IDs: Format: Raw Decoded Include TAF

Data at: 0021 UTC 11 Dec 2017

KUKF 102355Z AUTO 22003KT 10SM CLR 00/M06 A3014 RMK AO2
KUKF 102335Z AUTO 00000KT 10SM CLR 00/M06 A3014 RMK AO2
KUKF 102315Z AUTO 21003KT 10SM CLR 01/M06 A3015 RMK AO2
KUKF 102255Z AUTO 20003KT 10SM CLR 01/M06 A3014 RMK AO2
KUKF 102235Z AUTO 24004KT 10SM CLR 01/M06 A3014 RMK AO2
KUKF 102215Z AUTO 00000KT 10SM CLR 02/M06 A3014 RMK AO2
KUKF 102155Z AUTO 00000KT 10SM CLR 02/M06 A3014 RMK AO2
KUKF 102135Z AUTO 23004KT 10SM CLR 03/M06 A3014 RMK AO2
KUKF 102115Z AUTO 23003KT 10SM CLR 03/M06 A3014 RMK AO2
KUKF 102055Z AUTO 25003KT 10SM CLR 03/M06 A3014 RMK AO2
KUKF 102035Z AUTO 25005KT 10SM CLR 03/M06 A3014 RMK AO2
KUKF 102015Z AUTO 20007KT 10SM CLR 03/M06 A3014 RMK AO2
KUKF 101955Z AUTO 19010KT 10SM CLR 03/M06 A3014 RMK AO2
KUKF 101935Z AUTO 19006KT 10SM CLR 03/M06 A3014 RMK AO2
KUKF 101915Z AUTO 19006KT 10SM CLR 03/M06 A3015 RMK AO2
KUKF 101855Z AUTO 19005KT 10SM CLR 03/M07 A3015 RMK AO2 P0002
KUKF 101835Z AUTO 22009KT 10SM CLR 03/M07 A3016 RMK AO2 P0002
KUKF 101815Z AUTO 25006KT 10SM CLR 02/M07 A3016 RMK AO2 P0001
KUKF 101755Z AUTO 20003KT 10SM CLR 02/M07 A3017 RMK AO2 P0005
KUKF 101735Z AUTO 22003KT 10SM CLR 02/M07 A3019 RMK AO2 P0003
KUKF 101715Z AUTO 26003KT 10SM CLR 01/M07 A3020 RMK AO2 P0001
KUKF 101655Z AUTO 21005KT 10SM CLR 01/M06 A3022 RMK AO2 P0005
KUKF 101635Z AUTO 00000KT 10SM CLR 01/M07 A3022 RMK AO2 P0003
KUKF 101615Z AUTO 24003KT 10SM CLR 01/M07 A3022 RMK AO2 P0001
KUKF 101555Z AUTO 21005KT 10SM CLR 01/M07 A3023 RMK AO2 P0002
KUKF 101535Z AUTO 22005KT 10SM CLR 00/M07 A3023 RMK AO2 P0001
KUKF 101515Z AUTO 22005KT 10SM CLR 00/M07 A3023 RMK AO2 P0001
KUKF 101455Z AUTO 25005KT 10SM CLR 00/M07 A3023 RMK AO2
KUKF 101435Z AUTO 26003KT 10SM CLR 00/M07 A3023 RMK AO2
KUKF 101415Z AUTO 22005KT 10SM CLR M01/M07 A3022 RMK AO2
KUKF 101355Z AUTO 00000KT 10SM CLR M01/M07 A3021 RMK AO2
KUKF 101335Z AUTO 23003KT 10SM CLR M01/M07 A3020 RMK AO2
KUKF 101315Z AUTO 23004KT 10SM CLR M02/M07 A3019 RMK AO2
KUKF 101255Z AUTO 22004KT 10SM CLR M02/M07 A3018 RMK AO2
KUKF 101235Z AUTO 00000KT 10SM CLR M03/M07 A3017 RMK AO2
KUKF 101215Z AUTO 00000KT 10SM SCT042 M02/M07 A3016 RMK AO2
KUKF 101155Z AUTO 00000KT 10SM OVC042 M01/M07 A3015 RMK AO2
KUKF 101135Z AUTO 00000KT 10SM BKN042 M01/M07 A3014 RMK AO2
KUKF 101115Z AUTO 29004KT 10SM BKN044 M01/M07 A3014 RMK AO2
KUKF 101055Z AUTO 00000KT 10SM BKN044 M01/M08 A3013 RMK AO2
KUKF 101035Z AUTO 28005KT 10SM BKN044 M01/M08 A3012 RMK AO2
KUKF 101015Z AUTO 29007KT 10SM OVC044 M01/M08 A3011 RMK AO2
KUKF 100955Z AUTO 28006KT 10SM BKN046 M01/M08 A3010 RMK AO2
KUKF 100935Z AUTO 29008G16KT 250V310 10SM SCT046 M01/M07 A3009 RMK AO2
KUKF 100915Z AUTO 31013G20KT 280V340 10SM SCT046 M01/M07 A3008 RMK AO2
KUKF 100855Z AUTO 30009G16KT 10SM SCT035 BKN042 M01/M07 A3008 RMK AO2
KUKF 100835Z AUTO 30009G18KT 270V330 10SM BKN038 BKN044 M01/M07 A3007 RMK AO2
KUKF 100815Z AUTO 32010G16KT 10SM BKN040 OVC048 M01/M07 A3006 RMK AO2
KUKF 100755Z AUTO 29005KT 10SM SCT040 BKN048 BKN055 M01/M07 A3005 RMK AO2
KUKF 100735Z AUTO 28003KT 10SM BKN048 BKN055 M01/M07 A3004 RMK AO2
KUKF 100715Z AUTO 27003KT 10SM OVC048 M01/M07 A3004 RMK AO2
KUKF 100655Z AUTO 00000KT 10SM OVC048 M01/M07 A3004 RMK AO2
KUKF 100635Z AUTO 30006KT 10SM SCT041 BKN048 M01/M07 A3003 RMK AO2
KUKF 100615Z AUTO 30006KT 10SM BKN048 BKN050 M01/M07 A3003 RMK AO2
KUKF 100555Z AUTO 28003KT 10SM SCT045 M02/M07 A3003 RMK AO2
KUKF 100535Z AUTO 29004KT 10SM SCT050 M01/M07 A3003 RMK AO2
KUKF 100515Z AUTO 31003KT 10SM SCT049 SCT060 M02/M06 A3003 RMK AO2
KUKF 100455Z AUTO 00000KT 10SM CLR M01/M06 A3002 RMK AO2
KUKF 100435Z AUTO 25003KT 10SM SCT048 SCT060 M01/M05 A3002 RMK AO2
KUKF 100415Z AUTO 36005KT 10SM CLR M01/M04 A3002 RMK AO2
KUKF 100355Z AUTO 28005KT 10SM SCT015 SCT020 SCT028 M01/M03 A3000 RMK AO2
KUKF 100335Z AUTO 31011G18KT 5SM -SN SCT024 SCT036 SCT049 00/M05 A2999 RMK AO2
KUKF 100315Z AUTO 00000KT 10SM SCT050 00/M05 A2997 RMK AO2
KUKF 100255Z AUTO 00000KT 10SM SCT043 BKN050 BKN060 M01/M05 A2996 RMK AO2
KUKF 100235Z AUTO 00000KT 10SM SCT034 SCT044 SCT050 M01/M05 A2995 RMK AO2
KUKF 100215Z AUTO 24004KT 10SM CLR M01/M05 A2994 RMK AO2
KUKF 100155Z AUTO 24004KT 10SM CLR M01/M05 A2993 RMK AO2
KUKF 100135Z AUTO 24006KT 10SM SCT100 M01/M05 A2993 RMK AO2
KUKF 100115Z AUTO 24003KT 10SM SCT100 M01/M03 A2993 RMK AO2
KUKF 100055Z AUTO 23003KT 10SM SCT100 00/M03 A2993 RMK AO2
KUKF 100035Z AUTO 00000KT 10SM OVC100 00/M03 A2992 RMK AO2
KUKF 100015Z AUTO 26003KT 10SM OVC100 00/M02 A2992 RMK AO2
KUKF 092355Z AUTO 24004KT 10SM OVC090 00/00 A2991 RMK AO2 P0001
KUKF 092335Z AUTO 22004KT 10SM OVC090 00/00 A2990 RMK AO2 P0001
KUKF 092315Z AUTO 24004KT 10SM OVC090 00/00 A2989 RMK AO2 P0001
KUKF 092255Z AUTO 23005KT 10SM SCT012 BKN090 00/00 A2988 RMK AO2
KUKF 092235Z AUTO 23003KT 10SM BKN012 00/00 A2987 RMK AO2
KUKF 092215Z AUTO 23005KT 10SM OVC012 00/00 A2986 RMK AO2
KUKF 092155Z AUTO 22007KT 10SM BKN012 00/00 A2985 RMK AO2 P0006
KUKF 092135Z AUTO 22006KT 10SM BKN012 00/00 A2984 RMK AO2 P0005
KUKF 092115Z AUTO 21005KT 10SM BKN010 00/00 A2984 RMK AO2 P0003
KUKF 092055Z AUTO 23006KT 10SM BKN008 01/00 A2983 RMK AO2 P0013
KUKF 092035Z AUTO 20004KT 10SM OVC008 01/00 A2983 RMK AO2 P0006
KUKF 092015Z AUTO 20004KT 10SM OVC008 01/00 A2984 RMK AO2
KUKF 091955Z AUTO 19004KT 10SM OVC008 01/01 A2984 RMK AO2
KUKF 091935Z AUTO 21003KT 10SM BKN008 BKN029 OVC034 01/00 A2985 RMK AO2
KUKF 091915Z AUTO 22003KT 10SM SCT006 BKN035 OVC040 01/01 A2984 RMK AO2
KUKF 091855Z AUTO 23005KT 10SM SCT004 OVC028 00/00 A2984 RMK AO2
KUKF 091835Z AUTO 22004KT 7SM BKN006 BKN023 OVC031 00/00 A2985 RMK AO2
KUKF 091815Z AUTO 22003KT 10SM BKN006 OVC023 00/00 A2984 RMK AO2
KUKF 091755Z AUTO 00000KT 4SM -RA OVC006 00/00 A2985 RMK AO2
KUKF 091735Z AUTO 00000KT 1SM -SN OVC004 00/00 A2985 RMK AO2
KUKF 091715Z AUTO 00000KT 1SM -SN OVC004 00/00 A2985 RMK AO2
KUKF 091655Z AUTO 00000KT 1 1/2SM -SN OVC004 00/00 A2985 RMK AO2
KUKF 091635Z AUTO 13003KT 1 1/4SM -SN OVC004 00/00 A2986 RMK AO2
KUKF 091615Z AUTO 00000KT 1 1/2SM -SN OVC004 00/00 A2988 RMK AO2
KUKF 091555Z AUTO 16003KT 1 3/4SM -SN OVC004 00/00 A2989 RMK AO2 P0001
KUKF 091535Z AUTO 00000KT 1 1/4SM -SN OVC004 00/00 A2989 RMK AO2 P0001
KUKF 091515Z AUTO 00000KT 1 1/4SM -SN BKN006 OVC026 00/00 A2990 RMK AO2
KUKF 091455Z AUTO 00000KT 1 1/4SM -SN OVC004 00/00 A2989 RMK AO2
KUKF 091435Z AUTO 00000KT 1 3/4SM -SN OVC004 00/00 A2990 RMK AO2
KUKF 091415Z AUTO 00000KT 3/4SM -SN OVC002 00/00 A2990 RMK AO2
KUKF 091355Z AUTO 00000KT 1SM -SN OVC002 00/00 A2990 RMK AO2
KUKF 091335Z AUTO 00000KT 3/4SM -SN OVC002 00/00 A2991 RMK AO2
KUKF 091315Z AUTO 00000KT 3/4SM -SN OVC002 00/00 A2993 RMK AO2
KUKF 091255Z AUTO 00000KT 3/4SM -SN OVC002 00/00 A2992 RMK AO2
KUKF 091235Z AUTO 00000KT 3/4SM -SN OVC002 00/00 A2990 RMK AO2